Neligh, NE

5:44 PM CDT on March 28, 2017 (GMT -0500)
Neligh | | Change Station

Elev 1798 ft 42.13 °N, 98.03 °W | Updated 3 seconds ago

Overcast
Overcast
55.8 °F
Feels Like 55.8 °F
N
3.0
Wind Variable Wind from ESE
Gusts 6.0 mph

Today
High -- | Low -- °F
--% Chance of Precip.
Yesterday
High -- | Low -- °F
Precip. -- in
Pressure 30.06 in
Visibility 10.0 miles
Clouds Mostly Cloudy 3000 ft
Overcast 11000 ft
Dew Point 43 °F
Humidity 63%
Rainfall 0.00 in
Snow Depth Not available.
7:21 AM 7:53 PM
New Moon, 1% visible
METAR KBVN 282235Z AUTO 13010KT 10SM BKN030 OVC110 12/06 A3006 RMK AO2 T01150056
Pressure 30.06 in
Visibility 10.0 miles
Clouds Mostly Cloudy 3000 ft
Overcast 11000 ft
Dew Point 43 °F
Humidity 63%
Rainfall 0.00 in
Snow Depth Not available.
7:21 AM 7:53 PM
New Moon, 1% visible
METAR KBVN 282235Z AUTO 13010KT 10SM BKN030 OVC110 12/06 A3006 RMK AO2 T01150056

Get Severe Weather Alerts

Thanks for signing up!

Be on the lookout for a verification email in your inbox.

You'll start receiving the daily forecast at 8 AM.

×

10-Day Weather Forecast

Almanac

Astronomy

Mar. 28, 2017 Rise Set
Actual Time
Civil Twilight
Nautical Twilight
Astronomical Twilight
Moon
Length of Visible Light
Length of Day
Tomorrow will be .
, % of the Moon is Illuminated

Today's Extremes

State Highs State Lows

Community

WunderPhotos

Upload Photos

1,962,540 photos uploaded!

WunderBlog® & News

Nearby

Air Quality

  Air Quality AQ Index Pollutant
Not available.

Snow Depth

Station Depth Elevation

Earthquake Activity

City Distance Mag. Time & Date
Minimum magnitude displayed is 2.5.

Earthquake Activity

City Distance Mag. Time & Date
Minimum magnitude displayed is 2.5.

Coastal Water Temperatures

Place Temperature

Stations

Nearby Weather Stations

Station Location Temp. Windchill Dew Point Humidity Wind Precip. Elev Updated Type
                   

Watches & Warnings

There are currently no watches in effect.